Nearby METAR Reports

 

KFNL - Ft Collins/Love, Colorado, USA
Distance from station: NW 10mi, 16km
Updated: Sun, 31-May-2020 9:56pm MDT
Light rain, Few clouds
Light rain, Few clouds
 Wind from S
Wind: S 13 mph , 20 km/h
Temperature: 72°F , 22°C
Dew Point: 54°F , 12°C
Humidity: 53%
Barometer: 30.07 inHg , 1018.3 hPa
Summary: Light rain
Clouds: Few Clouds
Visibility: 10 miles , 16 km
Cloud details: Few Clouds 11000 ft
2020/06/01 03:56 KFNL 010356Z 17011KT 10SM -RA FEW110 22/12 A3007 RMK AO2 RAB52 SLP120 P0000 T02220122
KGXY - Greeley/Weld, Colorado, USA
Distance from station: ENE 14mi, 23km
Updated: Sun, 31-May-2020 9:56pm MDT
Clear
Clear
 Wind from SSE
Wind: SSE 7 mph , 11 km/h
Temperature: 70°F , 21°C
Dew Point: 52°F , 11°C
Humidity: 53%
Barometer: 30.07 inHg , 1018.3 hPa
Clouds: Clear
Visibility: 10 miles , 16 km
2020/06/01 03:56 KGXY 010356Z 15006KT 10SM CLR 21/11 A3007 RMK AO2 SLP144 T02110106
 
KLMO - Longmont/Vbrand, Colorado, USA
Distance from station: SW 20mi, 33km
Updated: Mon, 04-May-2020 12:35pm MDT
NOT Current
Clear
Clear
 Wind from E
Wind: E 8 mph , 13 km/h
Temperature: 66°F , 19°C
Dew Point: 46°F , 8°C
Humidity: 49%
Barometer: 30.04 inHg , 1017.3 hPa
Clouds: Clear
Visibility: 10 miles , 16 km
2020/05/04 18:35 KLMO 041835Z AUTO 09007KT 10SM CLR 19/08 A3004 RMK AO2 T01900081
KEIK - Erie Muni, Colorado, USA
Distance from station: SSW 25mi, 40km
Updated: Sun, 31-May-2020 9:53pm MDT
Clear
Clear
 Wind from calm
Wind: Calm
Temperature: 68°F , 20°C
Dew Point: 48°F , 9°C
Humidity: 49%
Barometer: 30.13 inHg , 1020.3 hPa
Clouds: Clear
Visibility: 10 miles , 16 km
2020/06/01 03:53 KEIK 010353Z AUTO 00000KT 10SM CLR 20/09 A3013 RMK AO2 LTG DSNT SW T01970091
 
KBDU - Boulder Muni, Colorado, USA
Distance from station: SW 29mi, 47km
Updated: Sun, 31-May-2020 9:48pm MDT
Partly cloudy
Partly cloudy
 Wind from W
Wind: W 5 mph , 7 km/h
Temperature: 68°F , 20°C
Dew Point: 48°F , 9°C
Humidity: 49%
Barometer: 30.08 inHg , 1018.6 hPa
Clouds: Partly cloudy
Visibility: 10 miles , 16 km
Cloud details: Partly cloudy 12000 ft
2020/06/01 03:48 KBDU 010348Z AUTO 28004KT 10SM SCT120 20/09 A3008 RMK AO2
KBJC - Broomfield/Jeffc, Colorado, USA
Distance from station: SSW 34mi, 54km
Updated: Sun, 31-May-2020 9:55pm MDT
Mostly cloudy
Mostly cloudy
 Wind from W
Wind: W 7 mph , 11 km/h
Temperature: 66°F , 19°C
Dew Point: 50°F , 10°C
Humidity: 56%
Barometer: 30.11 inHg , 1019.6 hPa
Clouds: Mostly cloudy
Visibility: 20 miles , 32 km
Cloud details: Partly cloudy 15000 ft
Mostly cloudy 20000 ft
2020/06/01 03:55 KBJC 010355Z 26006KT 20SM SCT150 BKN200 19/10 A3011
 
KDEN - Denver (dia), Colorado, USA
Distance from station: SSE 37mi, 59km
Updated: Sun, 31-May-2020 9:53pm MDT
Mostly cloudy
Mostly cloudy
 Wind from ENE
Wind: ENE 8 mph , 13 km/h
Temperature: 66°F , 19°C
Dew Point: 48°F , 9°C
Humidity: 52%
Barometer: 30.11 inHg , 1019.6 hPa
Clouds: Mostly cloudy
Visibility: 10 miles , 16 km
Cloud details: Few Clouds 11000 ft
Mostly cloudy 15000 ft
Mostly cloudy 22000 ft
2020/06/01 03:53 KDEN 010353Z 06007KT 10SM FEW110 BKN150 BKN220 19/09 A3011 RMK AO2 SLP120 T01940089
KFTG - Denver F. Range, Colorado, USA
Distance from station: SSE 43mi, 69km
Updated: Wed, 29-Jan-2020 9:55pm MST
NOT Current
Overcast
Overcast
 Wind from W
Wind: W 7 mph , 11 km/h
Temperature: 30°F , -1°C
Wind Chill: 23°F , -5°C
Dew Point: 28°F , -2°C
Humidity: 93%
Barometer: 30.06 inHg , 1017.9 hPa
Clouds: Overcast
Visibility: 10 miles , 16 km
Cloud details: Partly cloudy 1300 ft
Mostly cloudy 2300 ft
Overcast 6000 ft
2020/01/30 04:55 KFTG 300455Z AUTO 26006KT 10SM SCT013 BKN023 OVC060 M01/M02 A3006 RMK AO2 T10111023
 
KBKF - Buckley Angb/Den, Colorado, USA
Distance from station: S 44mi, 72km
Updated: Sun, 31-May-2020 9:58pm MDT
Mostly cloudy
Mostly cloudy
 Wind from S
Wind: S 14 mph , 22 km/h
Temperature: 68°F , 20°C
Dew Point: 46°F , 8°C
Humidity: 46%
Barometer: 30.12 inHg , 1020 hPa
Clouds: Mostly cloudy
Visibility: 10 miles , 16 km
Cloud details: Few Clouds 7000 ft
Partly cloudy 14000 ft
Mostly cloudy 20000 ft
2020/06/01 03:58 KBKF 010358Z 19012KT 10SM FEW070 SCT140 BKN200 20/08 A3012 RMK AO2A SLP126 T02000083
KCAG - Craig, Colorado, USA
Distance from station: ESE 227mi, 365km
Updated: Sun, 31-May-2020 9:53pm MDT
Partly cloudy
Partly cloudy
 Wind from S
Wind: S 10 mph , 17 km/h
Temperature: 66°F , 19°C
Dew Point: 45°F , 7°C
Humidity: 46%
Barometer: 30.16 inHg , 1021.3 hPa
Clouds: Partly cloudy
Visibility: 10 miles , 16 km
Cloud details: Partly cloudy 10000 ft
2020/06/01 03:53 KCAG 010353Z AUTO 18009KT 10SM SCT100 19/07 A3016 RMK AO2 SLP139 T01890067
 
KHDN - Hayden/Yampa, Colorado, USA
Distance from station: E 211mi, 339km
Updated: Fri, 29-May-2020 3:56pm MDT
NOT Current
Clear
Clear
 Wind from W
Wind: W 8 mph , 13 km/h
Temperature: 81°F , 27°C
Dew Point: 37°F , 3°C
Humidity: 21%
Barometer: 30.24 inHg , 1024 hPa
Clouds: Clear
Visibility: 10 miles , 16 km
2020/05/29 21:56 KHDN 292156Z AUTO 27007KT 230V320 10SM CLR 27/03 A3024 RMK AO2 SLP161 T02720028
KSBS - Steamboat Spring, Colorado, USA
Distance from station: E 186mi, 299km
Updated: Sun, 31-May-2020 9:55pm MDT
Overcast
Overcast
 Wind from SE
Wind: SE 7 mph , 11 km/h
Temperature: 63°F , 17°C
Dew Point: 45°F , 7°C
Humidity: 52%
Barometer: 30.21 inHg , 1023 hPa
Clouds: Overcast
Visibility: 10 miles , 16 km
Cloud details: Overcast 11000 ft
2020/06/01 03:55 KSBS 010355Z AUTO 14006KT 10SM OVC110 17/07 A3021 RMK AO1 T01740070
 
KDWX - Dixon, Wyoming, USA
Distance from station: N 278mi, 447km
Updated: Sun, 31-May-2020 9:50pm MDT
Nearby thunderstorm, Mostly cloudy
Nearby thunderstorm, Mostly cloudy
 Wind from ESE
Wind: ESE 13 mph , 20 km/h
Temperature: 61°F , 16°C
Dew Point: 45°F , 7°C
Humidity: 55%
Barometer: 30.18 inHg , 1022 hPa
Summary: Nearby Thunderstorm
Clouds: Mostly cloudy
Visibility: 10 miles , 16 km
Cloud details: Partly cloudy 9000 ft
Mostly cloudy 12000 ft
2020/06/01 03:50 KDWX 010350Z AUTO 11011KT 10SM VCTS SCT090 BKN120 16/07 A3018 RMK AO2 LTG DSNT S T01640072
KEEO - Meeker, Colorado, USA
Distance from station: SSW 269mi, 433km
Updated: Sun, 31-May-2020 9:53pm MDT
Light rain, Mostly cloudy
Light rain, Mostly cloudy
 Wind from ESE
Wind: ESE 14 mph , 22 km/h
Temperature: 64°F , 18°C
Dew Point: 45°F , 7°C
Humidity: 49%
Barometer: 30.15 inHg , 1021 hPa
Summary: Light rain
Clouds: Mostly cloudy
Visibility: 10 miles , 16 km
Cloud details: Few Clouds 5500 ft
Mostly cloudy 8000 ft
Mostly cloudy 10000 ft
2020/06/01 03:53 KEEO 010353Z AUTO 11012KT 10SM -RA FEW055 BKN080 BKN100 18/07 A3015 RMK AO2 PK WND 19030/0333 RAB03E17B39 PRESFR SLP119 P0000 T01830067